Time;durP1;ratioP1;P1;durP2;ratioP2;P2;SDS_P1;SDS_P2;PMS_P1;PMS_P2;Temp;Humidity;BMP_temperature;BMP_pressure;BME280_temperature;BME280_humidity;BME280_pressure;Samples;Min_cycle;Max_cycle;Signal;HPM_P1;HPM_P2
2022/02/04 01:28:15;;;;;;;80.25;32.95;;;;;;;-7.14;94.77;99663.75;5012943;28;20497;-67
2022/02/04 01:30:43;;;;;;;91.65;38.08;;;;;;;-7.13;95.04;99657.84;5012446;28;20528;-67
2022/02/04 01:33:12;;;;;;;93.50;39.42;;;;;;;-7.11;95.81;99656.16;5012847;28;20522;-67
2022/02/04 01:35:38;;;;;;;96.90;39.65;;;;;;;-7.11;95.15;99661.25;4994830;28;20140;-66
2022/02/04 01:38:04;;;;;;;86.90;34.75;;;;;;;-7.19;95.44;99655.22;4995168;28;20288;-67
2022/02/04 01:40:30;;;;;;;98.43;40.08;;;;;;;-7.13;96.16;99660.38;4999974;28;20046;-67
2022/02/04 01:42:56;;;;;;;71.88;31.20;;;;;;;-7.18;95.48;99664.53;5000939;28;20060;-68
2022/02/04 01:45:22;;;;;;;86.80;36.95;;;;;;;-7.17;95.56;99668.78;5011530;28;20111;-67
2022/02/04 01:47:55;;;;;;;38.65;17.27;;;;;;;-7.31;95.43;99667.75;5012397;28;20076;-67
2022/02/04 01:50:24;;;;;;;84.10;33.65;;;;;;;-7.37;95.28;99673.59;5012449;28;20092;-67
2022/02/04 01:52:50;;;;;;;106.93;44.35;;;;;;;-7.35;95.49;99668.53;5012313;28;20104;-67
2022/02/04 01:55:17;;;;;;;86.97;36.08;;;;;;;-7.36;95.55;99669.38;5012294;28;20058;-67
2022/02/04 01:57:43;;;;;;;106.97;44.45;;;;;;;-7.34;95.65;99663.47;4994287;28;20406;-67
2022/02/04 02:00:10;;;;;;;82.38;35.20;;;;;;;-7.31;96.71;99662.66;4994251;28;20042;-68
2022/02/04 02:02:37;;;;;;;84.60;37.20;;;;;;;-7.23;96.24;99653.50;4994453;28;20057;-67
2022/02/04 02:05:03;;;;;;;97.07;34.60;;;;;;;-7.23;96.71;99663.63;5011784;28;20597;-69
2022/02/04 02:07:30;;;;;;;83.28;33.90;;;;;;;-7.28;96.15;99663.56;4994380;28;20087;-67
2022/02/04 02:10:00;;;;;;;60.97;29.58;;;;;;;-7.27;96.65;99665.28;5011609;28;20053;-67
2022/02/04 02:12:33;;;;;;;84.00;35.63;;;;;;;-7.23;96.40;99658.56;4995025;28;20080;-68
2022/02/04 03:00:51;;;;;;;130.68;52.70;;;;;;;-7.17;96.15;99684.00;4990530;28;20136;-67
2022/02/04 03:03:19;;;;;;;97.80;42.40;;;;;;;-7.19;95.59;99683.94;5005614;28;20117;-67
2022/02/04 03:05:45;;;;;;;123.38;51.33;;;;;;;-7.24;96.17;99692.34;5013981;28;20045;-66
2022/02/04 03:08:11;;;;;;;95.47;38.28;;;;;;;-7.28;96.15;99695.66;5031147;28;20136;-66
2022/02/04 03:10:37;;;;;;;106.60;41.83;;;;;;;-7.31;95.73;99693.94;5030388;28;20099;-68
2022/02/04 03:13:05;;;;;;;93.70;37.38;;;;;;;-7.31;96.02;99703.22;5030304;28;20057;-67
2022/02/04 03:15:32;;;;;;;107.13;43.60;;;;;;;-7.29;95.75;99697.34;5030990;28;20045;-67
2022/02/04 03:18:05;;;;;;;114.45;46.25;;;;;;;-7.27;96.29;99702.44;5012568;28;20048;-67
2022/02/04 03:20:42;;;;;;;107.72;44.95;;;;;;;-7.31;96.04;99703.22;5012573;28;20403;-66
2022/02/04 03:23:09;;;;;;;115.05;48.05;;;;;;;-7.30;95.28;99702.41;5011603;28;20431;-67
2022/02/04 03:25:39;;;;;;;104.40;42.22;;;;;;;-7.29;95.87;99704.94;5010627;28;20046;-67
2022/02/04 03:28:10;;;;;;;92.35;37.90;;;;;;;-7.33;95.93;99704.91;5009556;28;20077;-68
2022/02/04 03:30:38;;;;;;;93.18;37.63;;;;;;;-7.34;96.15;99710.78;5009410;28;20116;-69
2022/02/04 03:33:06;;;;;;;94.20;39.95;;;;;;;-7.38;95.68;99714.97;5010223;28;20042;-68
2022/02/04 03:35:32;;;;;;;99.82;44.75;;;;;;;-7.41;95.79;99708.16;4976774;28;20054;-67
2022/02/04 03:37:58;;;;;;;110.22;46.20;;;;;;;-7.41;95.91;99709.84;5010262;28;20461;-68
2022/02/04 03:40:25;;;;;;;96.18;40.80;;;;;;;-7.45;95.70;99714.03;4992846;28;20135;-68
2022/02/04 03:42:51;;;;;;;99.10;43.78;;;;;;;-7.48;95.76;99718.19;5009870;28;20112;-68
2022/02/04 03:45:17;;;;;;;83.07;37.28;;;;;;;-7.49;95.69;99719.88;4992763;28;20050;-68
2022/02/04 03:47:44;;;;;;;91.78;38.05;;;;;;;-7.47;95.61;99728.38;4976488;28;20590;-68
2022/02/04 03:50:10;;;;;;;100.03;41.05;;;;;;;-7.46;95.64;99722.44;5010081;28;20057;-68
2022/02/04 03:52:38;;;;;;;94.25;41.63;;;;;;;-7.43;95.44;99717.41;5010318;28;20046;-68
2022/02/04 03:55:04;;;;;;;106.47;43.03;;;;;;;-7.41;95.80;99720.84;4992602;28;20132;-68
2022/02/04 03:57:30;;;;;;;102.82;40.58;;;;;;;-7.39;95.58;99718.31;5010114;28;20045;-68
2022/02/04 03:59:56;;;;;;;100.85;43.20;;;;;;;-7.39;95.69;99721.72;4992258;28;20125;-69
2022/02/04 04:02:22;;;;;;;111.40;43.90;;;;;;;-7.35;95.26;99715.00;4992313;28;20445;-69
2022/02/04 04:04:48;;;;;;;88.15;36.50;;;;;;;-7.32;95.00;99711.66;5009671;28;20046;-69
2022/02/04 04:07:15;;;;;;;82.28;33.67;;;;;;;-7.30;94.72;99715.06;5024826;28;20049;-69
2022/02/04 04:09:48;;;;;;;91.53;38.75;;;;;;;-7.28;95.12;99721.00;5029633;28;20041;-68
2022/02/04 04:12:14;;;;;;;95.00;39.08;;;;;;;-7.33;94.94;99717.56;5029400;28;20077;-69
2022/02/04 04:14:40;;;;;;;89.93;38.38;;;;;;;-7.28;94.54;99724.41;4995803;28;20092;-69
2022/02/04 04:17:06;;;;;;;85.60;37.67;;;;;;;-7.26;95.20;99719.38;5011631;28;20053;-69
2022/02/04 04:19:32;;;;;;;109.63;45.72;;;;;;;-7.32;94.69;99719.25;5029746;28;20491;-69
2022/02/04 04:21:58;;;;;;;94.75;38.08;;;;;;;-7.33;93.96;99720.09;5011576;28;20080;-69
2022/02/04 04:24:24;;;;;;;100.60;43.50;;;;;;;-7.38;94.25;99715.81;5011938;28;20061;-69
2022/02/04 04:26:50;;;;;;;115.82;47.92;;;;;;;-7.41;94.39;99720.84;5029155;28;20103;-68
2022/02/04 04:29:16;;;;;;;111.03;47.10;;;;;;;-7.44;94.42;99720.81;5029529;28;20057;-68
2022/02/04 04:31:42;;;;;;;107.07;45.17;;;;;;;-7.47;95.23;99719.91;5028278;28;20513;-68
2022/02/04 04:34:08;;;;;;;107.13;47.90;;;;;;;-7.49;94.62;99726.59;4992364;28;20536;-68
2022/02/04 04:36:35;;;;;;;101.00;43.80;;;;;;;-7.53;94.88;99725.75;4988613;28;20097;-69
2022/02/04 04:39:16;;;;;;;127.65;58.13;;;;;;;-7.55;95.08;99727.38;5001255;28;20449;-69
2022/02/04 05:30:15;;;;;;;87.25;33.95;;;;;;;-7.83;94.58;99770.84;4999027;28;20042;-68
2022/02/04 05:32:42;;;;;;;93.65;37.08;;;;;;;-7.79;94.48;99767.53;5005763;28;20053;-68
2022/02/04 05:35:09;;;;;;;102.25;39.17;;;;;;;-7.77;94.49;99770.94;5005354;28;20050;-67
2022/02/04 05:37:39;;;;;;;73.25;30.45;;;;;;;-7.70;94.64;99770.22;4995743;28;20061;-67
2022/02/04 05:40:10;;;;;;;80.53;34.97;;;;;;;-7.57;93.99;99773.81;5015449;28;20052;-68
2022/02/04 05:42:43;;;;;;;78.40;34.30;;;;;;;-7.49;93.58;99777.28;4998082;28;20111;-67
2022/02/04 05:45:17;;;;;;;106.28;42.60;;;;;;;-7.48;93.42;99763.81;5016015;28;20060;-68
2022/02/04 05:47:46;;;;;;;116.93;51.80;;;;;;;-7.49;92.58;99768.00;5015779;28;20068;-67
2022/02/04 05:50:21;;;;;;;65.15;33.92;;;;;;;-7.47;92.99;99761.31;4988360;28;20544;-69
2022/02/04 05:58:52;;;;;;;87.65;36.53;;;;;;;-7.21;92.55;99773.50;4998731;28;20100;-69
2022/02/04 06:01:01;;;;;;;93.47;34.17;;;;;;;-6.99;91.29;99771.28;4991639;28;20217;-69
2022/02/04 06:24:27;;;;;;;85.00;38.25;;;;;;;-6.77;90.79;99767.34;4996703;28;20526;-68
2022/02/04 06:26:55;;;;;;;93.60;49.20;;;;;;;-6.81;90.54;99773.22;5000665;28;20101;-68
2022/02/04 06:29:22;;;;;;;72.95;34.80;;;;;;;-6.57;90.94;99770.13;4996665;28;20049;-68
2022/02/04 06:31:49;;;;;;;65.88;32.20;;;;;;;-6.50;90.38;99770.22;4997668;28;20053;-67
2022/02/04 06:34:15;;;;;;;90.05;41.58;;;;;;;-6.46;89.79;99759.28;4979132;28;20129;-67
2022/02/04 06:36:41;;;;;;;67.35;31.10;;;;;;;-6.31;89.65;99753.50;4996992;28;20124;-67
2022/02/04 06:39:07;;;;;;;72.00;35.10;;;;;;;-6.28;89.17;99762.88;4978569;28;20100;-69
2022/02/04 06:41:33;;;;;;;67.68;33.90;;;;;;;-6.01;88.50;99763.13;4982394;28;20078;-68
2022/02/04 06:44:02;;;;;;;74.18;34.47;;;;;;;-5.88;87.87;99772.56;5001337;28;20189;-68
2022/02/04 06:46:34;;;;;;;82.32;38.63;;;;;;;-6.01;87.96;99768.22;5000372;28;20692;-68
2022/02/04 06:49:11;;;;;;;70.35;30.90;;;;;;;-5.81;88.10;99761.59;4978814;28;20050;-69
2022/02/04 06:51:37;;;;;;;62.45;28.23;;;;;;;-5.80;88.25;99755.69;4981811;28;20046;-68
2022/02/04 06:54:06;;;;;;;86.22;42.15;;;;;;;-6.09;89.13;99764.75;5007495;28;20054;-68
2022/02/04 06:56:34;;;;;;;64.28;31.23;;;;;;;-5.70;88.82;99765.09;4982034;28;20107;-67
2022/02/04 06:59:01;;;;;;;71.47;32.65;;;;;;;-5.65;87.92;99758.34;5000128;28;20056;-68
2022/02/04 07:01:29;;;;;;;72.78;36.95;;;;;;;-5.65;87.25;99757.47;4965154;28;20050;-69
2022/02/04 07:03:55;;;;;;;55.00;27.02;;;;;;;-5.36;87.00;99763.66;4980791;28;20050;-69
2022/02/04 07:06:21;;;;;;;61.22;30.90;;;;;;;-5.12;86.09;99771.44;4997028;28;20070;-69
2022/02/04 07:09:10;;;;;;;62.80;28.02;;;;;;;-5.23;86.32;99762.06;4999497;28;20090;-69
2022/02/04 07:11:49;;;;;;;79.13;39.50;;;;;;;-5.55;87.29;99767.75;4997784;28;20184;-68
2022/02/04 07:14:27;;;;;;;60.88;32.78;;;;;;;-5.29;87.22;99765.41;4996054;28;20081;-68
2022/02/04 07:22:05;;;;;;;60.38;31.70;;;;;;;-4.84;85.71;99782.63;5000058;28;20045;-69
2022/02/04 07:24:32;;;;;;;61.42;33.55;;;;;;;-4.61;84.12;99781.06;4996573;28;20050;-68
2022/02/04 07:26:58;;;;;;;56.00;28.58;;;;;;;-4.43;83.82;99776.06;4980084;28;20053;-68
2022/02/04 07:29:24;;;;;;;56.95;26.98;;;;;;;-4.21;83.70;99776.97;4979292;28;20144;-70
2022/02/04 07:31:51;;;;;;;65.97;31.27;;;;;;;-142.02;100.00;61695.09;4997246;28;20054;-70
2022/02/04 07:34:36;;;;;;;55.47;28.85;;;;;;;-142.02;100.00;61695.09;4998942;28;20046;-68
2022/02/04 07:42:35;;;;;;;32.83;17.52;;;;;;;-3.28;79.81;99791.53;4998955;28;20582;-68
2022/02/04 07:45:02;;;;;;;43.08;21.73;;;;;;;-2.94;79.28;99789.78;4997413;28;20100;-69
2022/02/04 07:47:29;;;;;;;40.60;22.38;;;;;;;-2.48;76.23;99787.97;4981935;28;20589;-69
2022/02/04 07:49:55;;;;;;;43.47;20.05;;;;;;;-2.37;75.55;99791.34;4993993;28;20076;-70
2022/02/04 07:52:21;;;;;;;37.63;20.23;;;;;;;-142.02;100.00;61695.09;4996898;28;20072;-69
2022/02/04 07:54:48;;;;;;;47.15;22.05;;;;;;;-2.25;76.33;99796.38;4995601;28;20065;-70
2022/02/04 07:57:14;;;;;;;44.38;22.38;;;;;;;-142.02;100.00;61695.09;4998501;28;20236;-69
2022/02/04 07:59:40;;;;;;;43.35;24.48;;;;;;;-142.02;100.00;61695.09;4996006;28;20116;-69
2022/02/04 08:02:06;;;;;;;35.75;19.92;;;;;;;-142.02;100.00;61695.09;4996029;28;20530;-70
2022/02/04 08:04:35;;;;;;;33.17;19.05;;;;;;;-142.02;100.00;61695.09;4995540;28;20109;-70
2022/02/04 08:07:06;;;;;;;38.05;21.75;;;;;;;-142.02;100.00;61695.09;4977757;28;20536;-68
2022/02/04 08:23:14;;;;;;;38.95;22.02;;;;;;;-142.02;100.00;61695.09;4994797;28;20105;-69
2022/02/04 08:29:20;;;;;;;44.72;25.75;;;;;;;-142.02;100.00;61695.09;5005188;28;20138;-70
2022/02/04 08:39:02;;;;;;;39.42;24.75;;;;;;;-142.02;100.00;61695.09;4994538;28;20054;-70
2022/02/04 08:54:47;;;;;;;43.08;23.02;;;;;;;-142.02;100.00;61695.09;4994947;28;20057;-70
2022/02/04 08:57:36;;;;;;;33.75;21.35;;;;;;;-142.02;100.00;61695.09;4993813;28;20045;-70
2022/02/04 09:02:43;;;;;;;34.80;20.70;;;;;;;-142.02;100.00;61695.09;5004093;28;20409;-70
2022/02/04 09:05:14;;;;;;;30.30;17.80;;;;;;;-142.02;100.00;61695.09;4984330;28;20518;-70
2022/02/04 09:10:19;;;;;;;24.00;16.70;;;;;;;-142.02;100.00;61695.09;5000124;28;20514;-70
2022/02/04 09:21:48;;;;;;;45.60;19.38;;;;;;;-142.02;100.00;61695.09;4990609;28;20144;-70
2022/02/04 09:23:30;;;;;;;34.80;18.23;;;;;;;-142.02;100.00;61695.09;4983691;28;20117;-70
2022/02/04 09:25:57;;;;;;;30.17;18.42;;;;;;;-142.02;100.00;61695.09;4981741;28;20621;-70
2022/02/04 09:28:23;;;;;;;34.10;21.63;;;;;;;-142.02;100.00;61695.09;5002111;28;20203;-70
2022/02/04 09:30:49;;;;;;;34.30;18.55;;;;;;;-142.02;100.00;61695.09;5002972;28;20477;-70
2022/02/04 09:33:15;;;;;;;44.30;19.90;;;;;;;-142.02;100.00;61695.09;5000480;28;20053;-70
2022/02/04 09:35:42;;;;;;;30.35;19.38;;;;;;;-142.02;100.00;61695.09;5000200;28;20084;-70
2022/02/04 09:38:08;;;;;;;42.97;22.52;;;;;;;-142.02;100.00;61695.09;4996753;28;20046;-69
2022/02/04 09:40:34;;;;;;;38.50;18.40;;;;;;;-142.02;100.00;61695.09;4999341;28;20055;-69
2022/02/04 09:43:01;;;;;;;33.35;18.10;;;;;;;-142.02;100.00;61695.09;4980304;28;20149;-69
2022/02/04 09:45:28;;;;;;;36.60;20.00;;;;;;;-142.02;100.00;61695.09;5002443;28;20540;-70
2022/02/04 09:48:06;;;;;;;30.65;18.92;;;;;;;-142.02;100.00;61695.09;4997245;28;20081;-70
2022/02/04 09:50:34;;;;;;;27.42;13.98;;;;;;;-142.02;100.00;61695.09;5003382;28;20053;-70
2022/02/04 10:19:00;;;;;;;28.42;15.95;;;;;;;-142.02;100.00;61695.09;4998192;28;20459;-69
2022/02/04 10:21:03;;;;;;;33.92;18.55;;;;;;;-142.02;100.00;61695.09;4998110;28;20050;-69
2022/02/04 10:23:54;;;;;;;22.88;14.48;;;;;;;-142.02;100.00;61695.09;4987664;28;20062;-69
2022/02/04 10:26:21;;;;;;;21.35;11.15;;;;;;;-142.02;100.00;61695.09;4995995;28;20070;-70
2022/02/04 10:28:47;;;;;;;24.88;17.90;;;;;;;-142.02;100.00;61695.09;4988069;28;20042;-69
2022/02/04 10:31:20;;;;;;;25.00;14.13;;;;;;;-2.12;72.47;99757.13;4983795;28;20069;-70
2022/02/04 10:34:12;;;;;;;29.00;17.42;;;;;;;-2.15;72.23;99764.81;4984802;28;20128;-69
2022/02/04 10:36:56;;;;;;;15.10;12.15;;;;;;;-2.29;72.42;99769.13;4973394;28;20137;-69
2022/02/04 10:42:29;;;;;;;22.83;14.77;;;;;;;-2.05;72.05;99767.31;4981131;28;20307;-68
2022/02/04 10:53:54;;;;;;;14.15;10.02;;;;;;;-1.53;70.13;99771.22;4997809;28;20223;-69
2022/02/04 11:04:00;;;;;;;18.98;12.60;;;;;;;-2.01;71.25;99774.09;4997470;28;20104;-70
2022/02/04 11:09:30;;;;;;;15.77;12.02;;;;;;;-1.99;70.57;99775.78;4981698;28;20074;-69
2022/02/04 11:36:08;;;;;;;21.55;16.10;;;;;;;-2.33;72.39;99752.13;4981018;28;20042;-69
2022/02/04 11:52:50;;;;;;;13.93;9.85;;;;;;;-2.44;72.53;99742.81;5001720;28;20421;-68
2022/02/04 11:55:11;;;;;;;12.35;9.00;;;;;;;-142.02;100.00;61695.09;5001614;28;20045;-68
2022/02/04 11:58:03;;;;;;;8.90;7.72;;;;;;;-2.57;73.46;99747.13;4968507;28;20050;-68
2022/02/04 12:00:41;;;;;;;9.35;7.78;;;;;;;-2.61;73.53;99745.41;4994212;28;20517;-69
2022/02/04 12:03:35;;;;;;;10.68;8.07;;;;;;;-2.66;73.81;99758.22;4997082;28;20050;-69
2022/02/04 12:06:06;;;;;;;12.20;10.00;;;;;;;-2.58;73.43;99755.63;4996749;28;20140;-71
2022/02/04 12:08:32;;;;;;;15.25;10.60;;;;;;;-2.61;73.75;99755.66;4994719;28;20054;-70
2022/02/04 12:11:00;;;;;;;11.80;9.07;;;;;;;-2.46;73.43;99765.81;4978267;28;20046;-68
2022/02/04 12:13:27;;;;;;;14.35;9.73;;;;;;;-2.45;72.83;99764.94;4977430;28;20053;-68
2022/02/04 12:15:59;;;;;;;9.15;8.23;;;;;;;-2.45;72.83;99764.94;4986884;28;20074;-68
2022/02/04 12:18:37;;;;;;;6.88;5.97;;;;;;;-2.56;72.28;99776.94;4997182;28;20060;-68
2022/02/04 12:21:03;;;;;;;8.60;7.70;;;;;;;-142.02;100.00;61695.09;4997376;28;20465;-67
2022/02/04 12:23:29;;;;;;;11.30;8.07;;;;;;;-142.02;100.00;61695.09;4994237;28;20053;-67
2022/02/04 12:26:08;;;;;;;7.75;5.15;;;;;;;-2.61;71.80;99770.97;4980375;28;20046;-67
2022/02/04 12:29:09;;;;;;;12.52;6.68;;;;;;;-2.55;71.38;99781.16;4996282;28;20077;-66
2022/02/04 12:31:40;;;;;;;8.63;6.70;;;;;;;-2.51;71.47;99782.84;4993023;28;20046;-68
2022/02/04 12:34:18;;;;;;;7.15;6.32;;;;;;;-2.50;70.98;99773.50;4985543;28;20104;-67
2022/02/04 12:36:45;;;;;;;8.85;6.82;;;;;;;-2.55;71.61;99783.72;4999368;28;20053;-68
2022/02/04 12:39:14;;;;;;;13.57;8.32;;;;;;;-2.57;71.40;99780.34;5000730;28;20050;-68
2022/02/04 12:41:42;;;;;;;10.38;8.50;;;;;;;-142.02;100.00;61695.09;4999154;28;20054;-68
2022/02/04 12:44:20;;;;;;;12.07;7.07;;;;;;;-2.52;71.92;99781.16;4973562;28;20430;-67
2022/02/04 12:46:54;;;;;;;7.63;6.85;;;;;;;-2.48;71.91;99782.00;5002763;28;20667;-69
2022/02/04 12:49:28;;;;;;;10.75;7.82;;;;;;;-2.43;71.19;99780.28;4983263;28;20043;-68
2022/02/04 12:52:03;;;;;;;9.82;7.88;;;;;;;-2.54;71.00;99785.44;4998869;28;20050;-73
2022/02/04 12:54:43;;;;;;;12.55;8.23;;;;;;;-2.58;71.10;99788.84;5002149;28;20049;-68
2022/02/04 13:00:03;;;;;;;13.18;8.32;;;;;;;-2.69;71.22;99783.78;5013447;28;20053;-67
2022/02/04 13:03:01;;;;;;;13.82;7.82;;;;;;;-2.67;70.73;99787.19;5005425;28;20067;-69
2022/02/04 13:08:25;;;;;;;9.85;8.55;;;;;;;-2.75;71.22;99798.28;4988869;28;20050;-68
2022/02/04 13:11:01;;;;;;;14.07;9.57;;;;;;;-2.77;72.04;99799.97;5004733;28;20145;-67
2022/02/04 13:13:49;;;;;;;12.80;8.43;;;;;;;-2.74;72.24;99802.50;4997754;28;20183;-68
2022/02/04 13:16:26;;;;;;;18.40;12.77;;;;;;;-2.73;72.00;99791.44;4986439;28;20041;-68
2022/02/04 13:18:53;;;;;;;17.67;12.20;;;;;;;-2.74;72.13;99800.81;4999695;28;20521;-68
2022/02/04 13:21:19;;;;;;;18.42;11.98;;;;;;;-2.76;72.61;99799.97;4979838;28;20050;-68
2022/02/04 13:23:51;;;;;;;21.33;11.85;;;;;;;-2.78;72.93;99804.22;4987921;28;20050;-68
2022/02/04 13:26:24;;;;;;;22.75;13.43;;;;;;;-2.81;73.57;99805.94;4990036;28;20073;-67
2022/02/04 13:28:59;;;;;;;24.92;14.75;;;;;;;-2.84;73.93;99799.13;5001621;28;20046;-68
2022/02/04 13:31:25;;;;;;;21.88;12.43;;;;;;;-2.79;74.33;99796.56;5008876;28;20057;-68
2022/02/04 13:33:53;;;;;;;19.23;12.50;;;;;;;-2.77;74.20;99798.28;4986290;28;20196;-68
2022/02/04 13:44:53;;;;;;;17.10;11.15;;;;;;;-2.90;74.19;99808.50;5002395;28;20054;-67
2022/02/04 13:52:44;;;;;;;18.40;10.88;;;;;;;-2.86;73.75;99805.09;5003192;28;20056;-68
2022/02/04 13:58:16;;;;;;;18.73;9.55;;;;;;;-2.92;74.31;99825.53;5002597;28;20065;-67
2022/02/04 14:03:42;;;;;;;18.08;10.05;;;;;;;-2.93;74.72;99840.00;4982522;28;20042;-67
2022/02/04 14:06:13;;;;;;;14.43;9.77;;;;;;;-2.93;74.81;99831.50;4987113;28;20073;-67
2022/02/04 14:08:51;;;;;;;16.75;10.00;;;;;;;-2.98;74.98;99840.88;5003213;28;20526;-67
2022/02/04 14:11:33;;;;;;;16.65;9.27;;;;;;;-3.01;75.43;99843.44;4984337;28;20375;-68
2022/02/04 14:14:01;;;;;;;19.33;10.27;;;;;;;-3.03;75.20;99842.56;4979552;28;20065;-67
2022/02/04 14:16:28;;;;;;;16.75;10.60;;;;;;;-142.02;100.00;61695.09;4997396;28;20141;-67
2022/02/04 14:18:54;;;;;;;13.82;8.88;;;;;;;-142.02;100.00;61695.09;4980503;28;20061;-68
2022/02/04 14:21:20;;;;;;;21.80;11.68;;;;;;;-142.02;100.00;61695.09;5002068;28;21238;-67
2022/02/04 14:23:49;;;;;;;18.15;11.05;;;;;;;-142.02;100.00;61695.09;4990804;28;20050;-67
2022/02/04 14:26:22;;;;;;;24.35;13.88;;;;;;;-142.02;100.00;61695.09;4996510;28;20156;-67
2022/02/04 14:28:54;;;;;;;23.88;13.48;;;;;;;-142.02;100.00;61695.09;4996985;28;20045;-67
2022/02/04 15:03:02;;;;;;;24.10;11.45;;;;;;;-142.02;100.00;61695.09;4980680;28;20061;-67
2022/02/04 15:05:38;;;;;;;16.95;11.27;;;;;;;-142.02;100.00;61695.09;5000360;28;20392;-67
2022/02/04 15:08:09;;;;;;;16.35;11.75;;;;;;;-142.02;100.00;61695.09;4979405;28;20065;-67
2022/02/04 15:10:38;;;;;;;17.63;13.43;;;;;;;-142.02;100.00;61695.09;5002439;28;20053;-67
2022/02/04 15:13:10;;;;;;;26.20;14.82;;;;;;;-142.02;100.00;61695.09;5001192;28;20056;-67
2022/02/04 15:15:36;;;;;;;28.90;14.60;;;;;;;-142.02;100.00;61695.09;4979519;28;20144;-67
2022/02/04 15:18:02;;;;;;;16.20;11.27;;;;;;;-142.02;100.00;61695.09;4999992;28;20054;-67
2022/02/04 15:20:28;;;;;;;15.27;11.07;;;;;;;-142.02;100.00;61695.09;5000661;28;20057;-67
2022/02/04 15:22:54;;;;;;;21.38;11.63;;;;;;;-142.02;100.00;61695.09;4998403;28;20588;-68
2022/02/04 15:25:22;;;;;;;16.90;10.88;;;;;;;-142.02;100.00;61695.09;4997395;28;20057;-67
2022/02/04 15:28:25;;;;;;;15.35;12.48;;;;;;;-142.02;100.00;61695.09;4963973;28;20057;-67
2022/02/04 15:30:40;;;;;;;17.90;10.57;;;;;;;-142.02;100.00;61695.09;4999383;28;20062;-67
2022/02/04 15:33:06;;;;;;;19.97;12.73;;;;;;;-142.02;100.00;61695.09;4999893;28;20042;-68
2022/02/04 15:35:33;;;;;;;18.55;11.93;;;;;;;-142.02;100.00;61695.09;4998909;28;20061;-67
2022/02/04 15:37:59;;;;;;;11.40;10.23;;;;;;;-142.02;100.00;61695.09;4995164;28;20507;-68
2022/02/04 15:40:25;;;;;;;15.05;10.23;;;;;;;-142.02;100.00;61695.09;4996894;28;20533;-68
2022/02/04 15:43:02;;;;;;;18.05;10.77;;;;;;;-142.02;100.00;61695.09;5001599;28;20434;-68
2022/02/04 15:53:40;;;;;;;12.25;9.68;;;;;;;-142.02;100.00;61695.09;4967517;28;20045;-68
2022/02/04 15:56:25;;;;;;;16.38;10.40;;;;;;;-142.02;100.00;61695.09;4990200;28;20050;-69
2022/02/04 15:59:27;;;;;;;12.45;8.90;;;;;;;-142.02;100.00;61695.09;5004515;28;20108;-68
2022/02/04 16:04:43;;;;;;;18.90;12.57;;;;;;;-142.02;100.00;61695.09;5000598;28;20046;-68
2022/02/04 16:07:09;;;;;;;17.20;10.52;;;;;;;-142.02;100.00;61695.09;4997990;28;20052;-68
2022/02/04 16:09:36;;;;;;;17.88;11.98;;;;;;;-142.02;100.00;61695.09;4985805;28;20136;-68
2022/02/04 16:12:21;;;;;;;16.45;10.30;;;;;;;-142.02;100.00;61695.09;4998113;28;20049;-67
2022/02/04 16:14:56;;;;;;;15.90;13.25;;;;;;;-142.02;100.00;61695.09;4974687;28;20049;-67
2022/02/04 16:17:32;;;;;;;17.55;8.88;;;;;;;-142.02;100.00;61695.09;4978010;28;20046;-68
2022/02/04 16:20:20;;;;;;;13.15;11.80;;;;;;;-142.02;100.00;61695.09;4990090;28;20049;-67
2022/02/04 16:23:02;;;;;;;16.40;12.05;;;;;;;-142.02;100.00;61695.09;4991521;28;20059;-68
2022/02/04 16:31:02;;;;;;;11.82;9.85;;;;;;;-142.02;100.00;61695.09;4994176;28;20413;-68
2022/02/04 16:33:28;;;;;;;18.33;11.18;;;;;;;-3.89;79.14;99895.16;4981499;28;20058;-68
2022/02/04 16:36:03;;;;;;;13.52;10.32;;;;;;;-142.02;100.00;61695.09;4978717;28;20559;-68
2022/02/04 16:38:30;;;;;;;10.05;8.07;;;;;;;-142.02;100.00;61695.09;4964499;28;20058;-67
2022/02/04 16:41:06;;;;;;;12.93;8.77;;;;;;;-3.89;79.14;99895.16;4980299;28;20054;-68
2022/02/04 16:43:35;;;;;;;14.68;11.35;;;;;;;-142.02;100.00;61695.09;4981868;28;20065;-67
2022/02/04 16:46:02;;;;;;;13.48;10.40;;;;;;;-142.02;100.00;61695.09;4989189;28;20046;-68
2022/02/04 16:48:29;;;;;;;17.42;13.88;;;;;;;-142.02;100.00;61695.09;4992960;28;20525;-68
2022/02/04 16:50:55;;;;;;;11.98;8.90;;;;;;;-4.18;80.19;99898.44;4997191;28;20392;-67
2022/02/04 16:53:22;;;;;;;16.25;12.15;;;;;;;-142.02;100.00;61695.09;4973887;28;20037;-66
2022/02/04 16:55:48;;;;;;;12.60;9.93;;;;;;;-4.25;79.64;99895.84;4996293;28;20048;-67
2022/02/04 16:58:14;;;;;;;16.05;12.30;;;;;;;-142.02;100.00;61695.09;4994168;28;20133;-68
2022/02/04 17:00:40;;;;;;;12.98;9.55;;;;;;;-4.40;80.26;99900.88;4999144;28;20425;-67
2022/02/04 17:03:09;;;;;;;18.58;14.90;;;;;;;-4.40;80.26;99900.88;4993679;28;20089;-68
2022/02/04 17:05:50;;;;;;;14.32;11.52;;;;;;;-4.46;80.67;99912.72;4981843;28;20049;-67
2022/02/04 17:08:31;;;;;;;16.52;11.65;;;;;;;-4.51;80.90;99915.22;4998004;28;20051;-67
2022/02/04 17:10:57;;;;;;;14.65;12.27;;;;;;;-4.56;80.92;99926.25;4979836;28;20519;-68
2022/02/04 17:13:24;;;;;;;13.93;10.35;;;;;;;-4.62;81.23;99921.97;4977169;28;20518;-67
2022/02/04 17:15:50;;;;;;;14.75;10.35;;;;;;;-4.63;81.19;99935.53;4994062;28;20076;-68
2022/02/04 17:18:18;;;;;;;15.80;12.40;;;;;;;-4.67;81.64;99922.75;4977249;28;20086;-67
2022/02/04 17:20:47;;;;;;;16.83;14.40;;;;;;;-4.70;81.47;99922.72;5000635;28;20049;-67
2022/02/04 17:23:15;;;;;;;18.15;10.55;;;;;;;-4.72;81.81;99925.28;4982889;28;20038;-68
2022/02/04 17:25:44;;;;;;;20.30;15.55;;;;;;;-4.78;81.82;99927.78;4986638;28;20042;-67
2022/02/04 17:28:13;;;;;;;15.18;10.73;;;;;;;-4.82;82.10;99923.50;4963413;28;20053;-67
2022/02/04 17:30:39;;;;;;;15.02;10.60;;;;;;;-4.82;82.07;99920.97;4997666;28;20073;-68
2022/02/04 17:33:05;;;;;;;15.63;11.68;;;;;;;-4.88;82.00;99916.69;4999428;28;20088;-67
2022/02/04 17:35:32;;;;;;;16.10;12.82;;;;;;;-4.92;82.66;99924.28;4981623;28;20594;-67
2022/02/04 17:38:01;;;;;;;16.67;12.27;;;;;;;-4.96;82.19;99917.44;4997400;28;20117;-68
2022/02/04 17:40:27;;;;;;;14.52;12.25;;;;;;;-4.99;82.55;99922.50;4989293;28;20533;-67
2022/02/04 17:42:55;;;;;;;21.75;13.85;;;;;;;-4.99;82.62;99930.16;4996931;28;20641;-67
2022/02/04 17:45:22;;;;;;;12.30;10.10;;;;;;;-5.06;82.84;99924.16;5001670;28;20414;-67
2022/02/04 17:47:58;;;;;;;16.92;11.93;;;;;;;-5.06;82.71;99933.47;4964470;28;20513;-69
2022/02/04 17:50:38;;;;;;;17.35;10.30;;;;;;;-5.06;82.78;99938.56;5001742;28;20045;-68
2022/02/04 17:53:15;;;;;;;15.00;10.27;;;;;;;-5.07;82.69;99940.25;5003491;28;20042;-67
2022/02/04 17:55:47;;;;;;;16.27;12.50;;;;;;;-5.08;82.71;99940.25;5005826;28;20041;-68
2022/02/04 18:06:03;;;;;;;17.33;12.85;;;;;;;-5.18;83.62;99934.22;5009317;28;20049;-68
2022/02/04 18:08:29;;;;;;;13.27;10.23;;;;;;;-5.25;83.75;99932.47;4992371;28;20152;-68
2022/02/04 18:11:00;;;;;;;16.50;12.40;;;;;;;-5.25;84.16;99940.09;4992611;28;20643;-68
2022/02/04 18:13:26;;;;;;;15.88;12.48;;;;;;;-5.24;84.03;99935.88;4992858;28;20050;-68
2022/02/04 18:15:52;;;;;;;16.33;12.82;;;;;;;-5.23;83.79;99929.94;4994245;28;20038;-68
2022/02/04 18:18:18;;;;;;;23.92;14.65;;;;;;;-5.30;83.71;99934.13;5009653;28;20076;-68
2022/02/04 18:20:45;;;;;;;18.35;13.00;;;;;;;-5.35;84.25;99935.75;5010785;28;20046;-68
2022/02/04 18:23:19;;;;;;;22.58;15.43;;;;;;;-5.38;84.22;99934.03;4993295;28;20057;-68
2022/02/04 18:25:49;;;;;;;17.13;12.07;;;;;;;-5.39;84.12;99928.91;5010413;28;20045;-68
2022/02/04 18:28:15;;;;;;;20.27;13.07;;;;;;;-5.37;84.56;99932.34;5010410;28;20044;-67
2022/02/04 18:30:41;;;;;;;24.83;14.52;;;;;;;-5.38;84.58;99931.50;5010672;28;20053;-67
2022/02/04 18:33:07;;;;;;;19.95;16.33;;;;;;;-5.41;84.22;99926.38;4998382;28;20100;-68
2022/02/04 18:35:34;;;;;;;20.95;15.80;;;;;;;-5.44;85.22;99931.44;4994740;28;20054;-66
2022/02/04 18:38:50;;;;;;;25.10;14.93;;;;;;;-5.44;85.24;99941.59;4993908;28;20132;-67
2022/02/04 18:46:25;;;;;;;23.13;16.02;;;;;;;-5.51;85.54;99918.63;5012928;28;20049;-67
2022/02/04 18:48:54;;;;;;;21.25;14.48;;;;;;;-5.56;85.83;99922.84;4980452;28;20042;-67